Home

Weather

KSLC Current Conditions

KSLC 210154Z 36005KT 10SM FEW110 BKN170 BKN250 32/07 A2997 RMK AO2 SLP084 T03170067

KSLC Aviation Forecast

TAF AMD KSLC 202105Z 2021/2124 17010KT P6SM VCSH SCT150 BKN200 FM202130 33008KT P6SM VCSH SCT080 SCT150 FM210300 15008KT P6SM SCT120 SCT200 FM211500 16012KT P6SM SCT080 BKN200


92° F
Partly Cloudy
Partly Cloudy

Partly Cloudy
Friday
Partly Cloudy
High 92°/Low 74°
20%
Partly Cloudy
Saturday
Partly Cloudy
High 97°/Low 74°
20%
Partly Cloudy
Sunday
Partly Cloudy
High 92°/Low 69°
20%
Partly Cloudy
Monday
Partly Cloudy
High 95°/Low 71°
20%
Clear
Tuesday
Clear
High 96°/Low 72°
20%
Partly Cloudy
Wednesday
Partly Cloudy
High 96°/Low 72°
0%